createdAt,value
2023-03-23T15:59:43.979Z,19.10
2023-03-23T16:02:22.693Z,19.00
2023-03-23T16:04:52.240Z,18.90
2023-03-23T16:07:23.959Z,18.80
2023-03-23T16:09:53.024Z,18.70
2023-03-23T16:12:22.236Z,18.70
2023-03-23T16:14:51.483Z,18.60
2023-03-23T16:17:21.795Z,18.60
2023-03-23T16:19:51.070Z,18.60
2023-03-23T16:22:20.356Z,18.50
2023-03-23T16:24:49.422Z,18.40
2023-03-23T16:27:21.533Z,18.30
2023-03-23T16:30:02.969Z,18.20
2023-03-23T16:35:01.581Z,18.00
2023-03-23T16:37:33.753Z,17.90
2023-03-23T16:40:04.300Z,17.80
2023-03-23T16:42:33.400Z,17.60
2023-03-23T16:45:02.523Z,17.50
2023-03-23T16:47:32.296Z,17.40
2023-03-23T16:50:01.381Z,17.30
2023-03-23T16:52:30.503Z,17.10
2023-03-23T16:54:59.666Z,17.10
2023-03-23T16:57:28.856Z,16.90
2023-03-23T16:59:58.656Z,16.80
2023-03-23T17:02:28.020Z,16.70
2023-03-23T17:04:58.126Z,16.60
2023-03-23T17:07:27.506Z,16.50
2023-03-23T17:09:56.756Z,16.40
2023-03-23T17:12:26.453Z,16.40
2023-03-23T17:14:55.506Z,16.30
2023-03-23T17:17:24.870Z,16.20
2023-03-23T17:19:54.023Z,16.10
2023-03-23T17:22:23.472Z,16.10
2023-03-23T17:24:53.046Z,16.00
2023-03-23T17:27:22.228Z,16.00
2023-03-23T17:29:51.574Z,15.90
2023-03-23T17:32:21.844Z,15.80
2023-03-23T17:34:51.625Z,15.70
2023-03-23T17:37:21.771Z,15.70
2023-03-23T17:39:50.954Z,15.70
2023-03-23T17:42:20.066Z,15.60
2023-03-23T17:44:49.177Z,15.50
2023-03-23T17:47:18.518Z,15.50
2023-03-23T17:49:48.072Z,15.40
2023-03-23T17:52:17.231Z,15.30
2023-03-23T17:54:46.297Z,15.20
2023-03-23T17:57:15.653Z,15.10
2023-03-23T17:59:44.751Z,14.90
2023-03-23T18:02:14.184Z,14.70
2023-03-23T18:04:43.358Z,14.40
2023-03-23T18:07:13.680Z,14.10
2023-03-23T18:09:44.665Z,13.90
2023-03-23T18:12:14.838Z,13.70
2023-03-23T18:14:44.013Z,13.60
2023-03-23T18:17:13.179Z,13.50
2023-03-23T18:19:44.322Z,13.40
2023-03-23T18:22:13.426Z,13.30
2023-03-23T18:24:42.485Z,13.20
2023-03-23T18:27:11.561Z,13.10
2023-03-23T18:29:40.617Z,13.00
2023-03-23T18:32:09.783Z,13.00
2023-03-23T18:34:41.677Z,12.90
2023-03-23T18:37:10.979Z,12.80
2023-03-23T18:39:40.091Z,12.70
2023-03-23T18:42:09.225Z,12.60
2023-03-23T18:44:38.389Z,12.50
2023-03-23T18:47:07.462Z,12.40
2023-03-23T18:49:36.638Z,12.40
2023-03-23T18:52:06.172Z,12.40
2023-03-23T18:54:35.588Z,12.30
2023-03-23T18:57:04.661Z,12.30
2023-03-23T18:59:34.662Z,12.20
2023-03-23T19:02:04.553Z,12.20
2023-03-23T19:04:33.998Z,12.10
2023-03-23T19:07:03.471Z,12.00
2023-03-23T19:09:34.816Z,12.00
2023-03-23T19:12:04.000Z,11.80
2023-03-23T19:14:35.192Z,11.70
2023-03-23T19:17:04.303Z,11.60
2023-03-23T19:19:34.244Z,11.60
2023-03-23T19:22:03.988Z,11.60
2023-03-23T19:24:33.317Z,11.60
2023-03-23T19:27:02.927Z,11.50
2023-03-23T19:29:32.093Z,11.40
2023-03-23T19:32:01.385Z,11.30
2023-03-23T19:34:31.229Z,11.20
2023-03-23T19:37:05.562Z,11.10
2023-03-23T19:39:36.812Z,11.10
2023-03-23T19:42:07.100Z,11.00
2023-03-23T19:44:36.391Z,11.00
2023-03-23T19:47:05.733Z,10.90
2023-03-23T19:49:35.056Z,10.90
2023-03-23T19:52:11.985Z,10.90
2023-03-23T19:54:42.874Z,10.80
2023-03-23T19:57:12.197Z,10.80
2023-03-23T19:59:42.230Z,10.80
2023-03-23T20:02:12.684Z,10.70
2023-03-23T20:04:43.476Z,10.70
2023-03-23T20:07:12.800Z,10.60
2023-03-23T20:09:41.982Z,10.60
2023-03-23T20:12:11.115Z,10.60
2023-03-23T20:14:45.014Z,10.50
2023-03-23T20:17:14.768Z,10.50
2023-03-23T20:19:44.593Z,10.50
2023-03-23T20:22:14.570Z,10.40
2023-03-23T20:24:47.201Z,10.40
2023-03-23T20:27:17.518Z,10.30
2023-03-23T20:29:46.811Z,10.30
2023-03-23T20:32:16.099Z,10.20
2023-03-23T20:34:49.280Z,10.20
2023-03-23T20:37:20.820Z,10.20
2023-03-23T20:39:50.068Z,10.20
2023-03-23T20:42:19.233Z,10.20
2023-03-23T20:44:48.798Z,10.20
2023-03-23T20:47:17.921Z,10.20
2023-03-23T20:49:53.228Z,10.30
2023-03-23T20:52:26.043Z,10.40
2023-03-23T20:54:56.208Z,10.40
2023-03-23T20:57:25.412Z,10.40
2023-03-23T20:59:55.836Z,10.40
2023-03-23T21:02:29.888Z,10.50
2023-03-23T21:05:04.280Z,10.50
2023-03-23T21:07:33.693Z,10.50
2023-03-23T21:10:03.619Z,10.50
2023-03-23T21:12:32.975Z,10.60
2023-03-23T21:15:02.185Z,10.60
2023-03-23T21:17:32.695Z,10.60
2023-03-23T21:20:07.728Z,10.50
2023-03-23T21:22:37.312Z,10.50
2023-03-23T21:25:07.183Z,10.50
2023-03-23T21:27:37.225Z,10.50
2023-03-23T21:30:07.069Z,10.40
2023-03-23T21:32:36.409Z,10.30
2023-03-23T21:35:06.420Z,10.30
2023-03-23T21:37:35.546Z,10.30
2023-03-23T21:40:07.057Z,10.20
2023-03-23T21:42:36.416Z,10.30
2023-03-23T21:45:06.183Z,10.30
2023-03-23T21:47:36.225Z,10.40
2023-03-23T21:50:07.131Z,10.40
2023-03-23T21:52:36.262Z,10.40
2023-03-23T21:55:06.333Z,10.50
2023-03-23T21:57:37.012Z,10.50
2023-03-23T22:00:09.391Z,10.50
2023-03-23T22:02:39.142Z,10.60
2023-03-23T22:05:27.439Z,10.60
2023-03-23T22:08:07.024Z,10.60
2023-03-23T22:10:41.651Z,10.70
2023-03-23T22:13:11.991Z,10.70
2023-03-23T22:15:41.369Z,10.70
2023-03-23T22:18:10.482Z,10.80
2023-03-23T22:20:41.238Z,10.80
2023-03-23T22:23:10.458Z,10.80
2023-03-23T22:25:39.727Z,10.80
2023-03-23T22:28:09.149Z,10.80
2023-03-23T22:30:38.353Z,10.80
2023-03-23T22:33:08.097Z,10.70
2023-03-23T22:35:37.320Z,10.70
2023-03-23T22:38:06.449Z,10.70
2023-03-23T22:40:36.119Z,10.60
2023-03-23T22:43:05.394Z,10.60
2023-03-23T22:45:34.832Z,10.70
2023-03-23T22:48:06.836Z,10.60
2023-03-23T22:50:36.181Z,10.60
2023-03-23T22:53:05.325Z,10.50
2023-03-23T22:55:34.400Z,10.40
2023-03-23T22:58:03.527Z,10.40
2023-03-23T23:00:32.565Z,10.30
2023-03-23T23:03:01.744Z,10.30
2023-03-23T23:05:31.062Z,10.20
2023-03-23T23:08:00.587Z,10.20
2023-03-23T23:10:29.668Z,10.30
2023-03-23T23:12:58.762Z,10.40
2023-03-23T23:15:27.851Z,10.50
2023-03-23T23:17:57.051Z,10.50
2023-03-23T23:20:26.395Z,10.50
2023-03-23T23:22:55.845Z,10.60
2023-03-23T23:25:25.114Z,10.60
2023-03-23T23:27:55.694Z,10.60
2023-03-23T23:30:26.287Z,10.60
2023-03-23T23:32:56.781Z,10.60
2023-03-23T23:35:26.486Z,10.60
2023-03-23T23:37:55.671Z,10.50
2023-03-23T23:40:24.762Z,10.50
2023-03-23T23:42:54.001Z,10.50
2023-03-23T23:45:23.143Z,10.40
2023-03-23T23:47:52.342Z,10.40
2023-03-23T23:50:21.803Z,10.40
2023-03-23T23:52:52.277Z,10.40
2023-03-23T23:55:21.777Z,10.40
2023-03-23T23:57:51.844Z,10.30
